createdAt,value
2022-09-24T00:01:16.033Z,62.79
2022-09-24T00:03:45.452Z,62.74
2022-09-24T00:06:14.689Z,63.14
2022-09-24T00:08:42.391Z,62.64
2022-09-24T00:11:12.172Z,63.20
2022-09-24T00:13:40.051Z,62.91
2022-09-24T00:16:07.873Z,63.07
2022-09-24T00:18:35.929Z,63.10
2022-09-24T00:21:03.565Z,63.16
2022-09-24T00:23:31.240Z,63.05
2022-09-24T00:26:16.450Z,63.24
2022-09-24T00:28:44.693Z,63.19
2022-09-24T00:31:12.441Z,62.85
2022-09-24T00:33:40.061Z,62.82
2022-09-24T00:36:07.641Z,62.84
2022-09-24T00:38:35.231Z,63.25
2022-09-24T00:41:03.192Z,62.66
2022-09-24T00:43:30.799Z,62.72
2022-09-24T00:45:58.347Z,63.27
2022-09-24T00:48:26.206Z,62.75
2022-09-24T00:50:53.755Z,62.37
2022-09-24T00:53:21.895Z,62.61
2022-09-24T00:55:50.537Z,62.53
2022-09-24T00:58:18.103Z,62.93
2022-09-24T01:00:45.832Z,62.78
2022-09-24T01:03:13.662Z,62.76
2022-09-24T01:05:41.855Z,62.19
2022-09-24T01:08:09.416Z,62.79
2022-09-24T01:10:49.311Z,63.06
2022-09-24T01:13:16.849Z,62.79
2022-09-24T01:15:45.053Z,62.91
2022-09-24T01:18:12.679Z,62.94
2022-09-24T01:20:40.244Z,63.09
2022-09-24T01:23:07.938Z,63.01
2022-09-24T01:25:36.465Z,63.06
2022-09-24T01:28:05.354Z,62.98
2022-09-24T01:30:35.175Z,63.20
2022-09-24T01:33:03.461Z,62.94
2022-09-24T01:35:31.033Z,62.76
2022-09-24T01:37:58.593Z,63.21
2022-09-24T01:40:27.500Z,63.04
2022-09-24T01:42:55.079Z,62.72
2022-09-24T01:45:22.648Z,62.63
2022-09-24T01:47:50.269Z,62.61
2022-09-24T01:50:17.862Z,63.00
2022-09-24T01:52:46.523Z,63.46
2022-09-24T01:55:14.156Z,63.80
2022-09-24T01:57:41.706Z,63.54
2022-09-24T02:00:10.052Z,63.64
2022-09-24T02:02:37.709Z,63.91
2022-09-24T02:05:06.189Z,63.49
2022-09-24T02:07:34.696Z,63.13
2022-09-24T02:10:02.267Z,63.49
2022-09-24T02:12:29.916Z,62.99
2022-09-24T02:14:57.521Z,63.26
2022-09-24T02:17:25.695Z,63.02
2022-09-24T02:19:53.237Z,63.57
2022-09-24T02:22:20.773Z,63.12
2022-09-24T02:24:48.859Z,62.68
2022-09-24T02:27:16.424Z,62.90
2022-09-24T02:29:44.819Z,63.17
2022-09-24T02:32:12.418Z,63.46
2022-09-24T02:34:38.950Z,63.50
2022-09-24T02:37:06.894Z,63.44
2022-09-24T02:39:34.493Z,63.66
2022-09-24T02:42:02.666Z,63.62
2022-09-24T02:44:31.207Z,63.57
2022-09-24T02:46:58.890Z,64.18
2022-09-24T02:49:26.587Z,64.11
2022-09-24T02:51:54.147Z,63.73
2022-09-24T02:54:22.587Z,63.59
2022-09-24T02:56:50.092Z,63.95
2022-09-24T02:59:18.200Z,64.47
2022-09-24T03:01:45.850Z,64.27
2022-09-24T03:04:13.510Z,63.73
2022-09-24T03:06:41.411Z,64.24
2022-09-24T03:09:08.992Z,64.22
2022-09-24T03:11:36.543Z,64.75
2022-09-24T03:14:04.190Z,64.10
2022-09-24T03:16:31.890Z,64.40
2022-09-24T03:18:59.473Z,64.40
2022-09-24T03:21:27.425Z,64.45
2022-09-24T03:23:55.003Z,64.57
2022-09-24T03:26:22.547Z,64.20
2022-09-24T03:28:50.064Z,64.50
2022-09-24T03:31:16.974Z,64.55
2022-09-24T03:33:44.723Z,64.55
2022-09-24T03:36:12.271Z,64.21
2022-09-24T03:38:39.872Z,64.46
2022-09-24T03:41:07.384Z,64.12
2022-09-24T03:43:35.178Z,64.25
2022-09-24T03:46:03.033Z,64.53
2022-09-24T03:48:31.133Z,64.38
2022-09-24T03:50:58.673Z,64.26
2022-09-24T03:53:26.258Z,65.02
2022-09-24T03:55:54.225Z,64.93
2022-09-24T03:58:21.795Z,64.84
2022-09-24T04:00:49.493Z,64.62
2022-09-24T04:03:17.078Z,64.74
2022-09-24T04:05:45.258Z,64.74
2022-09-24T04:08:13.285Z,64.69
2022-09-24T04:10:40.839Z,64.99
2022-09-24T04:13:09.151Z,64.93
2022-09-24T04:15:36.722Z,64.38
2022-09-24T04:18:04.252Z,64.75
2022-09-24T04:20:33.404Z,65.13
2022-09-24T04:23:01.024Z,64.76
2022-09-24T04:25:28.583Z,65.05
2022-09-24T04:27:56.843Z,64.52
2022-09-24T04:30:24.640Z,65.26
2022-09-24T04:32:52.700Z,65.12
2022-09-24T04:35:20.370Z,65.07
2022-09-24T04:37:48.091Z,65.15
2022-09-24T04:40:16.355Z,65.08
2022-09-24T04:42:44.982Z,65.01
2022-09-24T04:45:12.917Z,65.13
2022-09-24T04:47:42.044Z,65.15
2022-09-24T04:50:10.019Z,65.32
2022-09-24T04:52:37.569Z,65.44
2022-09-24T04:55:05.174Z,65.64
2022-09-24T04:57:36.542Z,65.32
2022-09-24T05:00:04.282Z,65.65
2022-09-24T05:02:31.922Z,65.36
2022-09-24T05:04:59.541Z,65.13
2022-09-24T05:07:27.133Z,65.70
2022-09-24T05:09:55.091Z,65.74
2022-09-24T05:12:22.651Z,65.56
2022-09-24T05:14:50.307Z,65.47
2022-09-24T05:17:17.879Z,65.32
2022-09-24T05:19:45.454Z,65.41
2022-09-24T05:22:13.372Z,65.39
2022-09-24T05:24:41.114Z,65.16
2022-09-24T05:27:10.673Z,65.50
2022-09-24T05:29:38.470Z,65.34
2022-09-24T05:32:06.591Z,65.19
2022-09-24T05:34:34.536Z,65.56
2022-09-24T05:37:02.313Z,65.63
2022-09-24T05:39:33.645Z,65.68
2022-09-24T05:42:02.377Z,65.31
2022-09-24T05:44:31.258Z,65.90
2022-09-24T05:46:59.291Z,65.03
2022-09-24T05:49:27.047Z,65.63
2022-09-24T05:51:54.689Z,65.80
2022-09-24T05:54:22.568Z,65.78
2022-09-24T05:56:50.125Z,65.33
2022-09-24T05:59:18.167Z,65.34
2022-09-24T06:01:46.076Z,65.53
2022-09-24T06:04:14.019Z,65.83
2022-09-24T06:06:41.609Z,65.55
2022-09-24T06:09:10.188Z,65.38
2022-09-24T06:11:40.709Z,65.41
2022-09-24T06:14:09.888Z,65.71
2022-09-24T06:16:37.844Z,65.79
2022-09-24T06:19:05.582Z,65.16
2022-09-24T06:21:33.316Z,65.21
2022-09-24T06:24:01.318Z,65.21
2022-09-24T06:26:29.260Z,65.88
2022-09-24T06:29:02.189Z,65.38
2022-09-24T06:31:32.239Z,65.44
2022-09-24T06:34:00.654Z,65.49
2022-09-24T06:36:28.683Z,65.52
2022-09-24T06:38:59.292Z,65.80
2022-09-24T06:41:26.993Z,65.39
2022-09-24T06:43:54.696Z,65.43
2022-09-24T06:46:23.359Z,65.44
2022-09-24T06:48:51.672Z,64.88
2022-09-24T06:51:19.555Z,65.10
2022-09-24T06:53:47.206Z,64.96
2022-09-24T06:56:14.985Z,65.14
2022-09-24T06:58:43.091Z,64.94
2022-09-24T07:01:11.262Z,65.16
2022-09-24T07:03:39.766Z,65.30
2022-09-24T07:06:07.485Z,64.86
2022-09-24T07:08:35.277Z,64.80
2022-09-24T07:11:03.022Z,64.58
2022-09-24T07:13:31.120Z,64.29
2022-09-24T07:15:59.206Z,64.25
2022-09-24T07:18:27.065Z,64.86
2022-09-24T07:20:55.254Z,63.87
2022-09-24T07:23:23.101Z,63.71
2022-09-24T07:25:51.729Z,63.94
2022-09-24T07:28:20.076Z,63.88
2022-09-24T07:30:47.952Z,63.39
2022-09-24T07:33:15.826Z,63.66
2022-09-24T07:35:43.612Z,63.55
2022-09-24T07:38:12.646Z,63.53
2022-09-24T07:40:40.707Z,63.77
2022-09-24T07:43:14.130Z,63.45
2022-09-24T07:45:42.384Z,63.39
2022-09-24T07:48:10.111Z,63.25
2022-09-24T07:50:39.168Z,63.46
2022-09-24T07:53:08.130Z,63.38
2022-09-24T07:55:39.607Z,63.73
2022-09-24T07:58:07.453Z,63.41
2022-09-24T08:00:35.294Z,63.67
2022-09-24T08:03:03.383Z,63.20
2022-09-24T08:05:31.396Z,63.17
2022-09-24T08:07:59.447Z,62.78
2022-09-24T08:10:27.287Z,62.97
2022-09-24T08:12:55.178Z,62.29
2022-09-24T08:15:23.753Z,62.56
2022-09-24T08:17:52.085Z,62.05
2022-09-24T08:20:19.915Z,62.13
2022-09-24T08:22:47.781Z,61.29
2022-09-24T08:25:15.893Z,61.25
2022-09-24T08:27:44.009Z,60.50
2022-09-24T08:30:12.080Z,60.89
2022-09-24T08:32:39.893Z,60.64
2022-09-24T08:35:08.438Z,60.28
2022-09-24T08:37:37.383Z,60.47
2022-09-24T08:40:05.552Z,60.13
2022-09-24T08:42:34.344Z,59.59
2022-09-24T08:45:19.980Z,59.44
2022-09-24T08:47:48.645Z,59.84
2022-09-24T08:50:17.962Z,59.79
2022-09-24T08:52:46.490Z,58.69
2022-09-24T08:55:14.278Z,59.09
2022-09-24T08:57:42.238Z,58.59
2022-09-24T09:00:10.295Z,58.74
2022-09-24T09:02:38.855Z,58.73
2022-09-24T09:05:07.087Z,59.24
2022-09-24T09:07:35.611Z,58.99
2022-09-24T09:10:03.658Z,59.25
2022-09-24T09:12:31.457Z,58.92
2022-09-24T09:15:00.130Z,58.35
2022-09-24T09:17:27.977Z,57.96
2022-09-24T09:19:55.874Z,58.41
2022-09-24T09:22:24.413Z,58.04
2022-09-24T09:24:52.250Z,58.28
2022-09-24T09:27:20.652Z,58.32
2022-09-24T09:29:49.908Z,58.14
2022-09-24T09:32:17.717Z,58.06
2022-09-24T09:34:45.403Z,57.73
2022-09-24T09:37:13.320Z,58.02
2022-09-24T09:39:42.281Z,58.14
2022-09-24T09:42:10.671Z,58.34
2022-09-24T09:44:38.643Z,58.18
2022-09-24T09:47:07.135Z,58.45
2022-09-24T09:49:35.045Z,58.76
2022-09-24T09:52:04.089Z,59.09
2022-09-24T09:54:32.157Z,59.54
2022-09-24T09:57:00.010Z,59.27
2022-09-24T09:59:29.890Z,59.49
2022-09-24T10:01:57.957Z,59.71
2022-09-24T10:04:26.401Z,59.23
2022-09-24T10:06:54.449Z,58.87
2022-09-24T10:09:22.414Z,59.06
2022-09-24T10:11:50.189Z,58.61
2022-09-24T10:14:18.722Z,58.46
2022-09-24T10:16:47.127Z,58.11
2022-09-24T10:19:15.063Z,57.49
2022-09-24T10:21:42.930Z,57.86
2022-09-24T10:24:12.050Z,57.58
2022-09-24T10:26:44.715Z,57.32
2022-09-24T10:29:30.651Z,57.71
2022-09-24T10:31:58.870Z,58.09
2022-09-24T10:34:26.865Z,58.12
2022-09-24T10:36:54.911Z,58.14
2022-09-24T10:39:22.840Z,58.92
2022-09-24T10:41:51.054Z,58.66
2022-09-24T10:44:19.115Z,59.32
2022-09-24T10:46:47.185Z,59.44
2022-09-24T10:49:15.082Z,59.76
2022-09-24T10:51:43.027Z,59.38
2022-09-24T10:54:11.310Z,59.44
2022-09-24T10:56:45.961Z,59.62
2022-09-24T10:59:14.354Z,60.03
2022-09-24T11:01:42.467Z,60.06
2022-09-24T11:04:10.485Z,59.96
2022-09-24T11:06:38.811Z,60.22
2022-09-24T11:09:06.675Z,60.47
2022-09-24T11:11:34.431Z,60.52
2022-09-24T11:14:02.564Z,60.75
2022-09-24T11:16:30.687Z,60.71
2022-09-24T11:18:59.391Z,61.13
2022-09-24T11:21:27.319Z,60.96
2022-09-24T11:23:55.178Z,61.60
2022-09-24T11:26:23.167Z,61.95
2022-09-24T11:28:51.178Z,61.65
2022-09-24T11:31:19.634Z,61.60
2022-09-24T11:33:47.637Z,62.48
2022-09-24T11:36:16.003Z,62.70
2022-09-24T11:38:43.832Z,62.34
2022-09-24T11:41:11.658Z,62.73
2022-09-24T11:43:40.105Z,63.56
2022-09-24T11:46:08.460Z,63.23
2022-09-24T11:48:36.332Z,63.71
2022-09-24T11:51:04.177Z,63.31
2022-09-24T11:53:31.997Z,64.01
2022-09-24T11:56:00.179Z,63.85
2022-09-24T11:58:28.519Z,63.99
2022-09-24T12:00:56.833Z,64.26
2022-09-24T12:03:26.420Z,64.08
2022-09-24T12:05:54.578Z,64.20
2022-09-24T12:08:22.447Z,64.13
2022-09-24T12:10:50.604Z,63.94
2022-09-24T12:13:19.974Z,64.15
2022-09-24T12:15:48.593Z,64.34
2022-09-24T12:18:16.489Z,64.29
2022-09-24T12:20:44.907Z,64.59
2022-09-24T12:23:14.218Z,64.43
2022-09-24T12:25:42.764Z,64.12
2022-09-24T12:28:10.733Z,64.53
2022-09-24T12:30:56.225Z,64.40
2022-09-24T12:33:24.639Z,64.49
2022-09-24T12:35:54.286Z,64.27
2022-09-24T12:38:22.302Z,64.63
2022-09-24T12:40:50.282Z,64.44
2022-09-24T12:43:18.407Z,65.07
2022-09-24T12:45:47.369Z,64.50
2022-09-24T12:48:15.151Z,64.50
2022-09-24T12:50:46.170Z,65.08
2022-09-24T12:53:14.170Z,64.40
2022-09-24T12:55:42.549Z,64.58
2022-09-24T12:58:10.286Z,64.60
2022-09-24T13:00:38.120Z,64.64
2022-09-24T13:03:06.053Z,64.91
2022-09-24T13:05:34.676Z,64.83
2022-09-24T13:08:02.613Z,64.97
2022-09-24T13:10:30.850Z,65.00
2022-09-24T13:13:00.245Z,65.59
2022-09-24T13:15:29.070Z,65.53
2022-09-24T13:17:57.131Z,65.76
2022-09-24T13:20:26.243Z,65.92
2022-09-24T13:22:54.183Z,65.62
2022-09-24T13:25:22.967Z,65.60
2022-09-24T13:27:51.216Z,66.18
2022-09-24T13:30:19.157Z,65.70
2022-09-24T13:32:47.921Z,65.92
2022-09-24T13:35:21.652Z,65.67
2022-09-24T13:37:50.170Z,66.15
2022-09-24T13:40:18.139Z,65.89
2022-09-24T13:42:46.388Z,66.18
2022-09-24T13:45:14.741Z,66.07
2022-09-24T13:47:43.193Z,66.24
2022-09-24T13:50:11.551Z,65.80
2022-09-24T13:52:39.613Z,65.82
2022-09-24T13:55:07.594Z,66.13
2022-09-24T13:57:35.842Z,65.66
2022-09-24T14:00:04.065Z,65.56
2022-09-24T14:02:32.149Z,65.23
2022-09-24T14:04:59.936Z,65.81
2022-09-24T14:07:27.814Z,65.42
2022-09-24T14:09:56.012Z,65.55
2022-09-24T14:12:24.182Z,65.27
2022-09-24T14:14:52.311Z,65.51
2022-09-24T14:17:20.133Z,65.05
2022-09-24T14:19:48.114Z,65.18
2022-09-24T14:22:16.525Z,64.91
2022-09-24T14:24:44.673Z,65.55
2022-09-24T14:27:12.530Z,64.89
2022-09-24T14:29:45.390Z,65.39
2022-09-24T14:32:15.610Z,65.43
2022-09-24T14:34:44.052Z,65.78
2022-09-24T14:37:12.371Z,66.04
2022-09-24T14:39:40.398Z,65.36
2022-09-24T14:42:08.405Z,65.43
2022-09-24T14:44:37.608Z,65.66
2022-09-24T14:47:05.830Z,66.33
2022-09-24T14:49:34.066Z,65.79
2022-09-24T14:52:01.856Z,66.29
2022-09-24T14:54:30.135Z,65.87
2022-09-24T14:56:58.250Z,66.45
2022-09-24T14:59:26.800Z,66.03
2022-09-24T15:01:54.981Z,66.06
2022-09-24T15:04:23.133Z,66.43
2022-09-24T15:06:51.270Z,66.77
2022-09-24T15:09:19.179Z,66.12
2022-09-24T15:11:47.758Z,66.19
2022-09-24T15:14:16.586Z,66.66
2022-09-24T15:16:44.779Z,66.29
2022-09-24T15:19:12.703Z,66.74
2022-09-24T15:21:40.631Z,66.64
2022-09-24T15:24:08.907Z,66.60
2022-09-24T15:26:36.936Z,66.80
2022-09-24T15:29:04.702Z,66.36
2022-09-24T15:31:33.230Z,66.59
2022-09-24T15:34:01.228Z,67.02
2022-09-24T15:36:29.903Z,66.54
2022-09-24T15:38:59.506Z,67.10
2022-09-24T15:41:27.547Z,66.96
2022-09-24T15:43:55.327Z,66.47
2022-09-24T15:46:23.339Z,67.10
2022-09-24T15:48:51.831Z,66.78
2022-09-24T15:51:20.315Z,67.38
2022-09-24T15:53:48.181Z,67.31
2022-09-24T15:56:16.645Z,67.29
2022-09-24T15:58:44.558Z,67.57
2022-09-24T16:01:13.392Z,67.27
2022-09-24T16:03:42.198Z,67.53
2022-09-24T16:06:10.078Z,67.57
2022-09-24T16:08:37.904Z,67.67
2022-09-24T16:11:08.982Z,67.79
2022-09-24T16:13:37.795Z,68.77
2022-09-24T16:16:05.910Z,68.43
2022-09-24T16:18:33.897Z,68.79
2022-09-24T16:21:01.788Z,68.97
2022-09-24T16:23:30.208Z,68.63
2022-09-24T16:25:58.411Z,68.76
2022-09-24T16:28:26.481Z,69.52
2022-09-24T16:30:54.508Z,69.43
2022-09-24T16:33:22.638Z,69.43
2022-09-24T16:35:50.675Z,69.96
2022-09-24T16:38:22.473Z,69.73
2022-09-24T16:40:52.365Z,69.46
2022-09-24T16:43:20.541Z,69.66
2022-09-24T16:45:49.022Z,69.42
2022-09-24T16:48:17.028Z,69.74
2022-09-24T16:50:45.383Z,69.56
2022-09-24T16:53:13.638Z,69.61
2022-09-24T16:55:41.715Z,69.48
2022-09-24T16:58:09.722Z,69.95
2022-09-24T17:00:37.878Z,69.74
2022-09-24T17:03:06.318Z,69.68
2022-09-24T17:05:34.667Z,69.76
2022-09-24T17:08:03.051Z,69.75
2022-09-24T17:10:29.893Z,69.76
2022-09-24T17:12:58.316Z,69.99
2022-09-24T17:15:26.826Z,70.16
2022-09-24T17:17:55.165Z,70.27
2022-09-24T17:20:23.206Z,70.33
2022-09-24T17:22:51.198Z,70.48
2022-09-24T17:25:19.139Z,70.08
2022-09-24T17:27:47.788Z,70.57
2022-09-24T17:30:17.755Z,70.49
2022-09-24T17:32:45.630Z,70.49
2022-09-24T17:35:13.706Z,70.66
2022-09-24T17:37:41.645Z,70.70
2022-09-24T17:40:09.995Z,70.72
2022-09-24T17:42:38.764Z,70.96
2022-09-24T17:45:06.483Z,70.62
2022-09-24T17:47:54.644Z,70.65
2022-09-24T17:50:23.370Z,70.58
2022-09-24T17:52:51.407Z,70.96
2022-09-24T17:55:19.308Z,70.91
2022-09-24T17:57:47.158Z,70.22
2022-09-24T18:00:15.040Z,71.24
2022-09-24T18:02:43.621Z,70.88
2022-09-24T18:05:11.927Z,71.10
2022-09-24T18:07:39.788Z,71.25
2022-09-24T18:10:07.711Z,71.02
2022-09-24T18:12:35.603Z,71.48
2022-09-24T18:15:03.769Z,71.24
2022-09-24T18:17:31.864Z,71.24
2022-09-24T18:19:59.753Z,71.34
2022-09-24T18:22:27.616Z,71.30
2022-09-24T18:24:56.552Z,71.69
2022-09-24T18:27:24.646Z,71.85
2022-09-24T18:29:52.663Z,71.42
2022-09-24T18:32:20.977Z,71.42
2022-09-24T18:34:48.822Z,71.70
2022-09-24T18:37:16.788Z,71.98
2022-09-24T18:39:45.135Z,71.77
2022-09-24T18:42:12.977Z,71.90
2022-09-24T18:44:40.851Z,71.88
2022-09-24T18:47:08.661Z,72.11
2022-09-24T18:49:36.769Z,72.14
2022-09-24T18:52:04.885Z,72.22
2022-09-24T18:54:34.589Z,72.69
2022-09-24T18:57:02.394Z,72.21
2022-09-24T18:59:34.716Z,72.13
2022-09-24T19:02:04.417Z,72.53
2022-09-24T19:04:32.711Z,72.23
2022-09-24T19:07:00.646Z,72.55
2022-09-24T19:09:28.709Z,72.46
2022-09-24T19:11:56.613Z,72.71
2022-09-24T19:14:25.074Z,72.56
2022-09-24T19:16:57.017Z,72.45
2022-09-24T19:19:26.925Z,71.89
2022-09-24T19:21:54.857Z,72.11
2022-09-24T19:24:22.738Z,71.57
2022-09-24T19:26:50.915Z,72.04
2022-09-24T19:29:19.848Z,71.76
2022-09-24T19:31:49.030Z,71.53
2022-09-24T19:34:16.757Z,71.75
2022-09-24T19:36:45.366Z,71.67
2022-09-24T19:39:13.887Z,71.58
2022-09-24T19:41:42.147Z,71.77
2022-09-24T19:44:10.878Z,71.78
2022-09-24T19:46:38.929Z,71.63
2022-09-24T19:49:07.411Z,71.42
2022-09-24T19:51:35.244Z,71.69
2022-09-24T19:54:04.407Z,71.48
2022-09-24T19:56:32.566Z,71.85
2022-09-24T19:59:01.073Z,71.51
2022-09-24T20:01:29.595Z,71.82
2022-09-24T20:03:57.489Z,71.79
2022-09-24T20:06:25.588Z,71.27
2022-09-24T20:08:53.648Z,71.41
2022-09-24T20:11:21.510Z,71.85
2022-09-24T20:13:49.264Z,71.25
2022-09-24T20:16:19.865Z,72.11
2022-09-24T20:18:48.748Z,72.07
2022-09-24T20:21:18.534Z,72.04
2022-09-24T20:23:46.456Z,72.34
2022-09-24T20:26:31.705Z,72.49
2022-09-24T20:29:00.001Z,72.35
2022-09-24T20:31:27.954Z,72.53
2022-09-24T20:33:55.874Z,72.53
2022-09-24T20:36:24.968Z,72.68
2022-09-24T20:38:53.179Z,72.59
2022-09-24T20:41:21.292Z,72.74
2022-09-24T20:43:49.250Z,72.25
2022-09-24T20:46:17.107Z,73.06
2022-09-24T20:48:44.997Z,72.89
2022-09-24T20:51:13.167Z,73.04
2022-09-24T20:53:42.255Z,73.55
2022-09-24T20:56:09.967Z,73.30
2022-09-24T20:58:37.798Z,73.00
2022-09-24T21:01:05.688Z,73.25
2022-09-24T21:03:43.781Z,73.51
2022-09-24T21:06:13.727Z,73.65
2022-09-24T21:08:41.537Z,73.29
2022-09-24T21:11:09.410Z,73.15
2022-09-24T21:13:37.576Z,73.21
2022-09-24T21:16:05.432Z,73.17
2022-09-24T21:18:39.923Z,73.11
2022-09-24T21:21:08.730Z,73.19
2022-09-24T21:23:38.321Z,72.75
2022-09-24T21:26:09.794Z,73.15
2022-09-24T21:28:38.185Z,72.75
2022-09-24T21:31:06.027Z,72.71
2022-09-24T21:33:34.168Z,72.96
2022-09-24T21:36:01.963Z,72.95
2022-09-24T21:38:29.808Z,72.71
2022-09-24T21:40:58.468Z,72.77
2022-09-24T21:43:30.981Z,72.86
2022-09-24T21:46:01.902Z,72.74
2022-09-24T21:48:29.931Z,72.48
2022-09-24T21:50:58.077Z,73.05
2022-09-24T21:53:25.928Z,72.59
2022-09-24T21:55:53.728Z,72.75
2022-09-24T21:58:21.443Z,72.42
2022-09-24T22:00:49.482Z,72.59
2022-09-24T22:03:20.774Z,72.69
2022-09-24T22:05:49.410Z,72.57
2022-09-24T22:08:19.281Z,72.77
2022-09-24T22:10:47.114Z,72.68
2022-09-24T22:13:15.141Z,72.88
2022-09-24T22:15:44.563Z,72.77
2022-09-24T22:18:12.617Z,72.62
2022-09-24T22:20:40.488Z,72.67
2022-09-24T22:23:08.238Z,72.71
2022-09-24T22:25:36.047Z,72.53
2022-09-24T22:28:05.962Z,72.50
2022-09-24T22:30:34.413Z,72.78
2022-09-24T22:33:02.697Z,72.86
2022-09-24T22:35:49.986Z,72.67
2022-09-24T22:38:18.914Z,72.99
2022-09-24T22:40:46.737Z,73.07
2022-09-24T22:43:14.660Z,73.16
2022-09-24T22:45:43.693Z,72.67
2022-09-24T22:48:12.047Z,72.57
2022-09-24T22:50:40.200Z,72.56
2022-09-24T22:53:09.882Z,73.12
2022-09-24T22:55:37.512Z,72.72
2022-09-24T22:58:05.269Z,72.88
2022-09-24T23:00:32.994Z,72.89
2022-09-24T23:03:00.942Z,73.07
2022-09-24T23:05:29.582Z,72.71
2022-09-24T23:07:57.337Z,73.19
2022-09-24T23:10:25.039Z,72.91
2022-09-24T23:12:52.747Z,73.27
2022-09-24T23:15:21.034Z,73.09
2022-09-24T23:17:49.248Z,72.93
2022-09-24T23:20:17.039Z,73.20
2022-09-24T23:22:44.755Z,73.03
2022-09-24T23:25:12.417Z,72.73
2022-09-24T23:27:40.430Z,73.20
2022-09-24T23:30:08.809Z,73.08
2022-09-24T23:32:36.375Z,72.94
2022-09-24T23:35:04.067Z,73.13
2022-09-24T23:37:31.805Z,73.05
2022-09-24T23:39:59.853Z,72.93
2022-09-24T23:42:27.830Z,72.83
2022-09-24T23:44:55.438Z,73.22
2022-09-24T23:47:22.999Z,73.74
2022-09-24T23:49:50.656Z,73.32
2022-09-24T23:52:19.359Z,72.87
2022-09-24T23:54:47.583Z,73.48
2022-09-24T23:57:15.696Z,72.99
2022-09-24T23:59:43.257Z,73.13
